Time;durP1;ratioP1;P1;durP2;ratioP2;P2;SDS_P1;SDS_P2;PMS_P1;PMS_P2;Temp;Humidity;BMP_temperature;BMP_pressure;BME280_temperature;BME280_humidity;BME280_pressure;Samples;Min_cycle;Max_cycle;Signal;HPM_P1;HPM_P2
2022/05/03 00:00:36;;;;;;;17.38;14.20;;;10.60;66.20;;;;;;5071326;28;20062;-80
2022/05/03 00:03:16;;;;;;;16.70;13.73;;;10.60;66.20;;;;;;5070894;28;20615;-80
2022/05/03 00:06:08;;;;;;;16.95;13.75;;;10.60;66.30;;;;;;5066236;28;20454;-80
2022/05/03 00:08:39;;;;;;;18.08;13.27;;;10.50;66.30;;;;;;5065916;28;20044;-80
2022/05/03 00:11:25;;;;;;;15.18;13.57;;;10.50;66.30;;;;;;5066253;28;20489;-80
2022/05/03 00:13:54;;;;;;;15.80;13.73;;;10.50;66.30;;;;;;5066513;28;20053;-80
2022/05/03 00:16:22;;;;;;;17.55;14.35;;;10.40;66.30;;;;;;5070769;28;20122;-81
2022/05/03 00:19:07;;;;;;;16.75;14.00;;;10.40;66.30;;;;;;5070629;28;20043;-82
2022/05/03 00:21:35;;;;;;;16.90;13.88;;;10.40;66.40;;;;;;5071142;28;20048;-80
2022/05/03 00:24:04;;;;;;;15.68;13.57;;;10.40;66.40;;;;;;5076176;28;20081;-81
2022/05/03 00:26:32;;;;;;;16.00;13.75;;;10.40;66.40;;;;;;5092785;28;20043;-80
2022/05/03 00:29:00;;;;;;;15.40;12.73;;;10.40;66.40;;;;;;5092670;28;20048;-80
2022/05/03 00:31:28;;;;;;;15.82;13.13;;;10.30;66.40;;;;;;5092617;28;20472;-80
2022/05/03 00:33:57;;;;;;;17.13;13.48;;;10.30;66.40;;;;;;5093098;28;20044;-80
2022/05/03 00:36:24;;;;;;;16.20;13.82;;;10.20;66.40;;;;;;5091799;28;20052;-80
2022/05/03 00:38:52;;;;;;;19.35;13.82;;;10.30;66.40;;;;;;5092497;28;20081;-80
2022/05/03 00:41:50;;;;;;;14.65;12.82;;;10.20;66.40;;;;;;5092387;28;20048;-80
2022/05/03 00:44:55;;;;;;;15.98;13.05;;;10.20;66.40;;;;;;5092461;28;20044;-80
2022/05/03 00:47:56;;;;;;;15.50;13.10;;;10.20;66.40;;;;;;5092017;28;20114;-80
2022/05/03 00:50:42;;;;;;;16.80;13.90;;;10.10;66.40;;;;;;5092400;28;20043;-79
2022/05/03 00:53:18;;;;;;;18.23;13.55;;;10.10;66.40;;;;;;5092182;28;20436;-80
2022/05/03 00:56:19;;;;;;;15.68;13.85;;;10.10;66.50;;;;;;5092441;28;20567;-80
2022/05/03 00:59:11;;;;;;;17.60;13.40;;;10.00;66.50;;;;;;5079743;28;20048;-81
2022/05/03 01:01:49;;;;;;;16.13;14.20;;;10.00;66.50;;;;;;5078642;28;20052;-80
2022/05/03 01:04:37;;;;;;;17.00;14.48;;;9.90;66.50;;;;;;5092241;28;20076;-80
2022/05/03 01:07:33;;;;;;;17.17;14.15;;;9.90;66.60;;;;;;5089908;28;20480;-80
2022/05/03 01:10:06;;;;;;;17.08;13.90;;;9.90;66.60;;;;;;5092151;28;20100;-80
2022/05/03 01:12:48;;;;;;;15.88;14.10;;;9.90;66.70;;;;;;5090802;28;20048;-80
2022/05/03 01:15:23;;;;;;;16.38;14.57;;;9.90;66.70;;;;;;5091930;28;20460;-80
2022/05/03 01:18:28;;;;;;;18.98;15.23;;;9.80;66.70;;;;;;5091958;28;20047;-80
2022/05/03 01:21:13;;;;;;;19.40;15.75;;;9.80;66.80;;;;;;5091633;28;20051;-80
2022/05/03 01:24:07;;;;;;;18.33;15.50;;;9.80;66.80;;;;;;5090741;28;20044;-80
2022/05/03 01:26:57;;;;;;;18.67;15.77;;;9.70;66.80;;;;;;5091940;28;20044;-80
2022/05/03 01:29:33;;;;;;;18.92;16.05;;;9.70;66.90;;;;;;5091590;28;20650;-80
2022/05/03 01:32:02;;;;;;;16.98;14.52;;;9.70;66.90;;;;;;5091826;28;20048;-80
2022/05/03 01:34:31;;;;;;;19.38;16.23;;;9.70;66.90;;;;;;5091424;28;20452;-81
2022/05/03 01:40:21;;;;;;;18.98;16.27;;;9.60;67.00;;;;;;5092071;28;20124;-80
2022/05/03 01:43:10;;;;;;;19.63;16.52;;;9.60;67.10;;;;;;5120585;28;20448;-81
2022/05/03 01:45:56;;;;;;;21.88;16.23;;;9.50;67.10;;;;;;5090801;28;20044;-80
2022/05/03 01:52:21;;;;;;;17.67;15.77;;;9.50;67.20;;;;;;5091855;28;20048;-80
2022/05/03 01:54:53;;;;;;;18.73;15.82;;;9.40;67.20;;;;;;5065272;28;20045;-80
2022/05/03 01:57:57;;;;;;;19.15;16.42;;;9.40;67.30;;;;;;5066188;28;20045;-80
2022/05/03 02:00:24;;;;;;;18.67;16.52;;;9.40;67.30;;;;;;5072721;28;20048;-80
2022/05/03 02:03:22;;;;;;;22.23;16.92;;;9.40;67.30;;;;;;5068712;28;20044;-79
2022/05/03 02:06:24;;;;;;;21.63;17.42;;;9.40;67.40;;;;;;5068512;28;20549;-80
2022/05/03 02:09:06;;;;;;;19.17;16.50;;;9.40;67.40;;;;;;4993452;28;20050;-80
2022/05/03 02:12:07;;;;;;;20.77;17.50;;;9.30;67.50;;;;;;4993658;28;20496;-81
2022/05/03 02:14:55;;;;;;;23.13;17.65;;;9.30;67.50;;;;;;4993560;28;20105;-80
2022/05/03 02:17:42;;;;;;;19.17;16.48;;;9.30;67.50;;;;;;4993544;28;20109;-81
2022/05/03 02:20:30;;;;;;;19.17;17.08;;;9.30;67.60;;;;;;4993635;28;20594;-81
2022/05/03 02:23:32;;;;;;;20.02;16.17;;;9.20;67.60;;;;;;4990462;28;20465;-80
2022/05/03 02:26:14;;;;;;;22.17;18.05;;;9.20;67.70;;;;;;4993451;28;20139;-80
2022/05/03 02:29:19;;;;;;;21.90;17.00;;;9.20;67.70;;;;;;4993351;28;20162;-81
2022/05/03 02:31:51;;;;;;;;;;;9.10;67.80;;;;;;5000041;28;20508;-80
2022/05/03 02:34:42;;;;;;;22.35;17.58;;;9.10;67.80;;;;;;5011383;28;20734;-80
2022/05/03 02:37:15;;;;;;;21.90;18.50;;;9.10;67.90;;;;;;5010246;28;20053;-80
2022/05/03 02:40:04;;;;;;;21.48;18.15;;;9.00;67.90;;;;;;5013238;28;20405;-80
2022/05/03 02:42:31;;;;;;;20.63;17.67;;;9.00;68.00;;;;;;5011372;28;20046;-80
2022/05/03 02:45:02;;;;;;;22.73;18.55;;;9.00;68.10;;;;;;5038217;28;20111;-80
2022/05/03 02:47:52;;;;;;;22.42;18.38;;;9.00;68.10;;;;;;5051983;28;20049;-80
2022/05/03 02:50:35;;;;;;;24.65;19.27;;;8.90;68.20;;;;;;5052087;28;20049;-80
2022/05/03 02:53:31;;;;;;;24.58;19.40;;;8.90;68.20;;;;;;5052135;28;20477;-80
2022/05/03 02:56:22;;;;;;;21.13;17.55;;;8.90;68.30;;;;;;5052133;28;20044;-80
2022/05/03 02:59:00;;;;;;;22.42;18.83;;;8.90;68.30;;;;;;5052072;28;20116;-80
2022/05/03 03:02:00;;;;;;;23.67;19.63;;;8.90;68.30;;;;;;5051838;28;20052;-81
2022/05/03 03:04:46;;;;;;;21.80;18.95;;;8.90;68.40;;;;;;5019354;28;20045;-80
2022/05/03 03:07:17;;;;;;;23.63;20.13;;;8.90;68.40;;;;;;5093591;28;20056;-80
2022/05/03 03:09:49;;;;;;;27.13;20.60;;;8.90;68.40;;;;;;5094279;28;20055;-80
2022/05/03 03:12:20;;;;;;;22.95;19.35;;;8.80;68.40;;;;;;5094376;28;20044;-80
2022/05/03 03:14:52;;;;;;;26.00;20.70;;;8.80;68.50;;;;;;5094280;28;20048;-80
2022/05/03 03:17:25;;;;;;;24.42;21.30;;;8.80;68.50;;;;;;5093789;28;20395;-80
2022/05/03 03:20:07;;;;;;;26.17;21.63;;;8.70;68.50;;;;;;5094310;28;20079;-80
2022/05/03 03:22:40;;;;;;;26.85;22.10;;;8.80;68.60;;;;;;5079946;28;20040;-80
2022/05/03 03:25:15;;;;;;;25.08;20.85;;;8.80;68.60;;;;;;5094128;28;20048;-81
2022/05/03 03:27:44;;;;;;;25.80;22.05;;;8.70;68.60;;;;;;5094663;28;20052;-80
2022/05/03 03:30:18;;;;;;;25.42;21.75;;;8.70;68.60;;;;;;5093507;28;20097;-80
2022/05/03 03:32:48;;;;;;;25.67;21.50;;;8.70;68.60;;;;;;5092707;28;20048;-80
2022/05/03 03:35:16;;;;;;;25.65;22.00;;;8.70;68.70;;;;;;5093724;28;20472;-80
2022/05/03 03:37:45;;;;;;;28.10;22.00;;;8.60;68.70;;;;;;5093974;28;20052;-80
2022/05/03 03:40:14;;;;;;;26.65;21.63;;;8.70;68.70;;;;;;5093708;28;20055;-80
2022/05/03 03:42:45;;;;;;;28.13;23.60;;;8.60;68.70;;;;;;5094326;28;20062;-81
2022/05/03 03:45:14;;;;;;;26.63;22.27;;;8.60;68.80;;;;;;5093376;28;20048;-81
2022/05/03 03:47:44;;;;;;;26.80;22.40;;;8.60;68.80;;;;;;5093627;28;20048;-81
2022/05/03 03:50:12;;;;;;;30.73;24.08;;;8.60;68.80;;;;;;5093419;28;20093;-80
2022/05/03 03:52:42;;;;;;;26.55;22.75;;;8.50;68.90;;;;;;5092409;28;20048;-81
2022/05/03 03:55:11;;;;;;;25.95;22.90;;;8.50;68.90;;;;;;5093409;28;20043;-81
2022/05/03 03:57:39;;;;;;;25.95;22.25;;;8.50;69.00;;;;;;5094020;28;20652;-80
2022/05/03 04:00:09;;;;;;;26.58;22.58;;;8.50;69.00;;;;;;5092988;28;20464;-80
2022/05/03 04:02:36;;;;;;;27.80;23.65;;;8.50;69.00;;;;;;5092001;28;20040;-80
2022/05/03 04:05:05;;;;;;;27.88;22.20;;;8.50;69.00;;;;;;5093150;28;20043;-80
2022/05/03 04:07:32;;;;;;;26.58;22.83;;;8.50;69.00;;;;;;5093117;28;20048;-80
2022/05/03 04:09:59;;;;;;;26.75;22.33;;;8.40;69.00;;;;;;5093111;28;20460;-80
2022/05/03 04:12:27;;;;;;;27.63;23.50;;;8.40;69.00;;;;;;5093695;28;20495;-80
2022/05/03 04:14:54;;;;;;;29.27;24.25;;;8.40;69.00;;;;;;5092631;28;20453;-80
2022/05/03 04:17:20;;;;;;;30.27;23.13;;;8.40;69.00;;;;;;5092893;28;20044;-80
2022/05/03 04:19:47;;;;;;;34.13;23.80;;;8.40;69.00;;;;;;5092595;28;20052;-80
2022/05/03 04:22:29;;;;;;;26.50;23.60;;;8.40;69.00;;;;;;5092449;28;20059;-80
2022/05/03 04:24:57;;;;;;;29.42;24.30;;;8.40;69.10;;;;;;5089776;28;20563;-80
2022/05/03 04:27:25;;;;;;;29.77;24.95;;;8.40;69.10;;;;;;5092444;28;20044;-80
2022/05/03 04:29:52;;;;;;;32.28;24.15;;;8.30;69.10;;;;;;5092367;28;20109;-80
2022/05/03 04:32:20;;;;;;;29.58;24.05;;;8.30;69.10;;;;;;5092696;28;20525;-80
2022/05/03 04:34:48;;;;;;;31.02;24.58;;;8.30;69.20;;;;;;5092686;28;20044;-80
2022/05/03 04:37:15;;;;;;;28.63;23.17;;;8.30;69.20;;;;;;5091594;28;20052;-80
2022/05/03 04:39:41;;;;;;;28.95;23.50;;;8.30;69.20;;;;;;5093054;28;20051;-80
2022/05/03 04:42:09;;;;;;;32.70;25.02;;;8.30;69.30;;;;;;5092468;28;20044;-80
2022/05/03 04:44:36;;;;;;;28.15;24.02;;;8.30;69.30;;;;;;5092112;28;20449;-80
2022/05/03 04:47:03;;;;;;;30.02;24.33;;;8.20;69.30;;;;;;5092483;28;20044;-80
2022/05/03 04:49:30;;;;;;;29.52;24.80;;;8.20;69.40;;;;;;5091383;28;20079;-81
2022/05/03 04:51:57;;;;;;;31.20;22.92;;;8.20;69.40;;;;;;5092881;28;20039;-80
2022/05/03 04:54:24;;;;;;;32.60;24.45;;;8.20;69.40;;;;;;5091885;28;20052;-80
2022/05/03 04:56:55;;;;;;;29.33;23.58;;;8.20;69.40;;;;;;5092328;28;20048;-80
2022/05/03 04:59:22;;;;;;;30.98;24.80;;;8.20;69.50;;;;;;5091803;28;20040;-80
2022/05/03 05:01:49;;;;;;;27.75;23.60;;;8.20;69.50;;;;;;5092307;28;20048;-80
2022/05/03 05:04:16;;;;;;;30.73;24.13;;;8.20;69.60;;;;;;5092199;28;20043;-80
2022/05/03 05:06:42;;;;;;;28.98;24.40;;;8.20;69.70;;;;;;5092719;28;20579;-80
2022/05/03 05:09:09;;;;;;;30.65;25.58;;;8.20;69.70;;;;;;5091991;28;20101;-80
2022/05/03 05:11:36;;;;;;;31.90;25.75;;;8.20;69.80;;;;;;5092046;28;20044;-80
2022/05/03 05:14:03;;;;;;;31.27;25.65;;;8.20;69.90;;;;;;5091802;28;20089;-80
2022/05/03 05:16:30;;;;;;;28.60;25.08;;;8.20;70.00;;;;;;5092101;28;20449;-80
2022/05/03 05:18:58;;;;;;;32.30;25.25;;;8.20;70.10;;;;;;5092116;28;20494;-80
2022/05/03 05:21:24;;;;;;;33.97;26.50;;;8.20;70.20;;;;;;5091345;28;20097;-80
2022/05/03 05:23:52;;;;;;;31.27;26.17;;;8.20;70.30;;;;;;5091703;28;20574;-80
2022/05/03 05:26:19;;;;;;;33.53;26.38;;;8.10;70.30;;;;;;5090374;28;20093;-80
2022/05/03 05:28:46;;;;;;;32.55;26.42;;;8.20;70.40;;;;;;5091934;28;20051;-80
2022/05/03 05:31:31;;;;;;;33.53;26.38;;;8.20;70.50;;;;;;5091617;28;20052;-80
2022/05/03 05:33:58;;;;;;;34.15;26.52;;;8.20;70.60;;;;;;5089110;28;20127;-80
2022/05/03 05:36:25;;;;;;;31.08;26.23;;;8.20;70.70;;;;;;5091331;28;20048;-80
2022/05/03 05:38:52;;;;;;;30.52;25.08;;;8.20;70.80;;;;;;5091607;28;20105;-80
2022/05/03 05:41:20;;;;;;;31.42;26.20;;;8.20;70.90;;;;;;5091326;28;20052;-81
2022/05/03 05:43:47;;;;;;;32.45;26.90;;;8.30;71.00;;;;;;5091677;28;20113;-82
2022/05/03 05:46:15;;;;;;;32.13;25.77;;;8.30;71.10;;;;;;5091727;28;20931;-80
2022/05/03 05:48:42;;;;;;;33.78;26.08;;;8.20;71.20;;;;;;5092293;28;20052;-81
2022/05/03 05:51:08;;;;;;;31.88;27.45;;;8.30;71.30;;;;;;5091664;28;20471;-80
2022/05/03 05:53:35;;;;;;;33.65;26.65;;;8.30;71.50;;;;;;5091514;28;20566;-81
2022/05/03 05:56:04;;;;;;;33.05;27.80;;;8.30;71.60;;;;;;5091109;28;20101;-81
2022/05/03 05:58:31;;;;;;;32.70;27.25;;;8.40;71.70;;;;;;5090736;28;20040;-81
2022/05/03 06:00:58;;;;;;;30.55;26.45;;;8.40;71.80;;;;;;5091951;28;20461;-80
2022/05/03 06:03:28;;;;;;;34.13;27.88;;;8.40;71.90;;;;;;5091214;28;20044;-80
2022/05/03 06:05:59;;;;;;;36.05;29.30;;;8.40;72.00;;;;;;5091501;28;20079;-80
2022/05/03 06:08:26;;;;;;;30.38;25.08;;;8.40;72.10;;;;;;5091546;28;20478;-80
2022/05/03 06:10:57;;;;;;;31.50;26.45;;;8.50;72.20;;;;;;5091024;28;20109;-80
2022/05/03 06:13:25;;;;;;;37.45;29.05;;;8.50;72.30;;;;;;5075567;28;20058;-81
2022/05/03 06:15:54;;;;;;;34.25;28.98;;;8.60;72.30;;;;;;5091745;28;20055;-80
2022/05/03 06:18:22;;;;;;;32.53;27.75;;;8.60;72.40;;;;;;5091333;28;20486;-79
2022/05/03 06:20:49;;;;;;;36.90;27.20;;;8.70;72.50;;;;;;5091199;28;20052;-80
2022/05/03 06:23:17;;;;;;;30.35;25.98;;;8.80;72.50;;;;;;5091109;28;20056;-80
2022/05/03 06:25:45;;;;;;;31.48;26.35;;;8.80;72.60;;;;;;5091070;28;20097;-80
2022/05/03 06:28:12;;;;;;;33.97;27.55;;;8.90;72.60;;;;;;5091368;28;20048;-80
2022/05/03 06:30:40;;;;;;;33.13;28.23;;;8.90;72.60;;;;;;5091718;28;20044;-80
2022/05/03 06:33:07;;;;;;;33.50;26.02;;;9.00;72.70;;;;;;5091285;28;20563;-80
2022/05/03 06:35:34;;;;;;;32.67;27.60;;;9.10;72.80;;;;;;5091159;28;20044;-80
2022/05/03 06:38:01;;;;;;;31.70;26.85;;;9.10;72.90;;;;;;5091303;28;20109;-80
2022/05/03 06:40:29;;;;;;;32.88;26.85;;;9.20;72.90;;;;;;5089776;28;20037;-80
2022/05/03 06:42:56;;;;;;;34.45;28.23;;;9.30;73.00;;;;;;5091143;28;20052;-80
2022/05/03 06:45:42;;;;;;;33.83;27.23;;;9.40;73.00;;;;;;5094206;28;20044;-80
2022/05/03 06:48:12;;;;;;;31.27;26.55;;;9.50;73.00;;;;;;5094539;28;20044;-80
2022/05/03 06:51:15;;;;;;;33.10;27.48;;;9.50;73.00;;;;;;5094116;28;20134;-80
2022/05/03 06:53:42;;;;;;;34.65;26.95;;;9.60;73.10;;;;;;5094148;28;20048;-80
2022/05/03 06:56:09;;;;;;;35.30;28.95;;;9.70;73.10;;;;;;5094172;28;20089;-80
2022/05/03 06:58:42;;;;;;;35.85;28.00;;;9.80;73.20;;;;;;5093845;28;20044;-80
2022/05/03 07:01:11;;;;;;;31.65;26.23;;;9.90;73.20;;;;;;5093944;28;20048;-80
2022/05/03 07:03:38;;;;;;;34.58;27.23;;;9.90;73.20;;;;;;5092912;28;20075;-80
2022/05/03 07:06:06;;;;;;;34.10;27.08;;;10.00;73.20;;;;;;5087820;28;20070;-80
2022/05/03 07:08:34;;;;;;;34.72;25.63;;;10.00;73.10;;;;;;5079932;28;20045;-80
2022/05/03 07:11:02;;;;;;;33.83;25.58;;;10.20;73.00;;;;;;5088634;28;20056;-80
2022/05/03 07:13:29;;;;;;;33.08;24.88;;;10.20;73.00;;;;;;5090333;28;20090;-81
2022/05/03 07:15:59;;;;;;;29.52;23.13;;;10.30;72.90;;;;;;5076638;28;20426;-80
2022/05/03 07:23:57;;;;;;;32.55;25.55;;;10.50;72.60;;;;;;5077996;28;20090;-81
2022/05/03 07:26:25;;;;;;;33.58;24.75;;;10.60;72.50;;;;;;5078673;28;20052;-80
2022/05/03 07:28:51;;;;;;;28.33;23.33;;;10.60;72.40;;;;;;5078135;28;20105;-80
2022/05/03 07:31:19;;;;;;;26.42;22.20;;;10.70;72.30;;;;;;5073969;28;20421;-80
2022/05/03 07:33:48;;;;;;;26.67;21.40;;;10.80;72.20;;;;;;5078432;28;20513;-80
2022/05/03 07:36:18;;;;;;;28.38;22.10;;;10.90;72.10;;;;;;5078269;28;20048;-81
2022/05/03 07:38:46;;;;;;;26.15;21.70;;;10.90;71.90;;;;;;5077592;28;20094;-80
2022/05/03 07:41:13;;;;;;;26.85;20.88;;;11.00;71.80;;;;;;5077905;28;20044;-80
2022/05/03 07:43:41;;;;;;;26.23;20.40;;;11.10;71.70;;;;;;5088481;28;20564;-79
2022/05/03 07:46:09;;;;;;;25.13;19.70;;;11.20;71.60;;;;;;5089498;28;20044;-79
2022/05/03 07:48:36;;;;;;;24.38;19.58;;;11.20;71.40;;;;;;5089378;28;20044;-82
2022/05/03 07:51:03;;;;;;;23.60;18.98;;;11.30;71.20;;;;;;5080020;28;20563;-80
2022/05/03 07:53:30;;;;;;;25.80;19.25;;;11.40;71.10;;;;;;5076847;28;20044;-80
2022/05/03 07:55:57;;;;;;;25.50;19.75;;;11.50;70.90;;;;;;5077716;28;20579;-81
2022/05/03 07:58:24;;;;;;;23.98;18.80;;;11.60;70.70;;;;;;5073582;28;20040;-81
2022/05/03 08:00:51;;;;;;;24.33;18.15;;;11.70;70.50;;;;;;5090466;28;20101;-80
2022/05/03 08:03:20;;;;;;;24.30;17.60;;;11.70;70.30;;;;;;5087540;28;20135;-81
2022/05/03 08:05:47;;;;;;;23.30;17.92;;;11.90;70.10;;;;;;5094946;28;20755;-80
2022/05/03 08:08:32;;;;;;;22.08;17.45;;;11.90;70.00;;;;;;5090261;28;20036;-79
2022/05/03 08:10:59;;;;;;;22.40;17.98;;;12.00;69.80;;;;;;5077391;28;20048;-80
2022/05/03 08:13:25;;;;;;;21.00;16.40;;;12.10;69.60;;;;;;5073168;28;20047;-80
2022/05/03 08:16:18;;;;;;;23.95;17.63;;;12.20;69.30;;;;;;5076609;28;20103;-80
2022/05/03 08:18:45;;;;;;;21.05;16.23;;;12.30;69.10;;;;;;5104217;28;20052;-79
2022/05/03 08:21:12;;;;;;;21.48;16.00;;;12.40;68.90;;;;;;5086610;28;20048;-79
2022/05/03 08:23:39;;;;;;;22.13;16.65;;;12.40;68.70;;;;;;5082647;28;20094;-81
2022/05/03 08:26:07;;;;;;;20.50;15.68;;;12.50;68.50;;;;;;5077372;28;20043;-81
2022/05/03 08:28:34;;;;;;;18.40;14.93;;;12.60;68.20;;;;;;5074366;28;20445;-81
2022/05/03 08:31:03;;;;;;;21.98;15.38;;;12.70;68.10;;;;;;5074480;28;20098;-80
2022/05/03 08:33:30;;;;;;;22.08;15.07;;;12.90;67.90;;;;;;5079069;28;20521;-81
2022/05/03 08:35:56;;;;;;;19.55;13.95;;;12.90;67.60;;;;;;5076774;28;20048;-80
2022/05/03 08:46:42;;;;;;;17.75;14.02;;;13.30;66.70;;;;;;5075231;28;20110;-78
2022/05/03 08:49:13;;;;;;;18.05;12.80;;;13.40;66.40;;;;;;5073953;28;20048;-79
2022/05/03 08:51:43;;;;;;;18.05;12.95;;;13.50;66.20;;;;;;5087250;28;20063;-78
2022/05/03 08:54:11;;;;;;;17.92;13.55;;;13.60;66.00;;;;;;5076939;28;20091;-79
2022/05/03 08:56:38;;;;;;;16.38;12.88;;;13.70;65.80;;;;;;5076998;28;20106;-79
2022/05/03 08:59:05;;;;;;;17.02;13.35;;;13.80;65.60;;;;;;5075244;28;20127;-78
2022/05/03 09:01:32;;;;;;;17.95;13.73;;;13.90;65.30;;;;;;5088385;28;20056;-79
2022/05/03 09:06:47;;;;;;;15.63;11.73;;;14.00;64.90;;;;;;5076265;28;20052;-79
2022/05/03 09:09:15;;;;;;;16.48;11.38;;;14.20;64.60;;;;;;5076926;28;20135;-79
2022/05/03 09:11:47;;;;;;;14.75;11.40;;;14.30;64.40;;;;;;5076771;28;20052;-79
2022/05/03 09:14:37;;;;;;;14.88;11.55;;;14.40;64.30;;;;;;5076719;28;20047;-78
2022/05/03 09:17:04;;;;;;;15.90;9.93;;;14.50;64.00;;;;;;5076835;28;20081;-79
2022/05/03 09:19:33;;;;;;;16.67;11.63;;;14.50;63.80;;;;;;5073149;28;20044;-79
2022/05/03 09:25:02;;;;;;;16.80;11.60;;;14.70;63.40;;;;;;5088867;28;20044;-79
2022/05/03 09:27:31;;;;;;;15.45;10.60;;;14.90;63.10;;;;;;5087036;28;20048;-79
2022/05/03 09:30:09;;;;;;;14.10;10.75;;;14.90;62.90;;;;;;5079096;28;20045;-79
2022/05/03 09:32:41;;;;;;;14.25;10.13;;;15.00;62.70;;;;;;5076523;28;20086;-79
2022/05/03 09:35:44;;;;;;;15.48;10.82;;;15.20;62.50;;;;;;5076799;28;20040;-79
2022/05/03 09:38:11;;;;;;;12.73;10.32;;;15.30;62.20;;;;;;5023833;28;20049;-78
2022/05/03 09:40:41;;;;;;;13.10;9.27;;;15.40;62.10;;;;;;5026605;28;20049;-79
2022/05/03 09:43:08;;;;;;;14.68;9.88;;;15.40;61.80;;;;;;5026951;28;20087;-79
2022/05/03 09:45:36;;;;;;;12.38;9.45;;;15.50;61.60;;;;;;5025585;28;20049;-79
2022/05/03 09:48:04;;;;;;;13.82;9.23;;;15.70;61.30;;;;;;5023603;28;20440;-79
2022/05/03 09:50:39;;;;;;;12.82;8.98;;;15.80;61.10;;;;;;5028318;28;20041;-78
2022/05/03 09:53:16;;;;;;;13.73;8.90;;;15.90;60.90;;;;;;5028175;28;20503;-79
2022/05/03 09:55:45;;;;;;;12.32;9.30;;;15.90;60.60;;;;;;5028440;28;20634;-78
2022/05/03 09:58:14;;;;;;;12.82;8.70;;;16.00;60.40;;;;;;5028437;28;20049;-79
2022/05/03 10:00:43;;;;;;;13.50;9.25;;;16.10;60.20;;;;;;5029729;28;20164;-79
2022/05/03 10:03:10;;;;;;;11.52;8.57;;;16.20;60.00;;;;;;5028019;28;20052;-79
2022/05/03 10:05:40;;;;;;;12.15;7.93;;;16.20;59.80;;;;;;5028175;28;20444;-79
2022/05/03 10:08:11;;;;;;;10.18;7.55;;;16.30;59.60;;;;;;5028322;28;20103;-79
2022/05/03 10:10:44;;;;;;;11.60;8.05;;;16.40;59.40;;;;;;5025724;28;20053;-79
2022/05/03 10:13:14;;;;;;;10.45;7.68;;;16.50;59.20;;;;;;5066415;28;20058;-79
2022/05/03 10:21:29;;;;;;;;;;;16.70;58.50;;;;;;5075609;28;20056;-79
2022/05/03 10:24:04;;;;;;;10.57;7.35;;;16.80;58.30;;;;;;5074223;28;20030;-79
2022/05/03 10:27:01;;;;;;;10.05;7.53;;;16.80;58.10;;;;;;5080090;28;20102;-79
2022/05/03 10:32:17;;;;;;;13.57;8.25;;;16.90;57.70;;;;;;5087890;28;20067;-79
2022/05/03 10:34:53;;;;;;;11.70;7.75;;;16.90;57.60;;;;;;5089974;28;20514;-79
2022/05/03 10:37:40;;;;;;;10.73;7.50;;;17.00;57.40;;;;;;5103773;28;20082;-79
2022/05/03 10:40:14;;;;;;;9.10;6.60;;;17.00;57.20;;;;;;5091188;28;20059;-79
2022/05/03 10:42:41;;;;;;;11.70;7.85;;;17.00;57.20;;;;;;5079334;28;20098;-79
2022/05/03 10:45:14;;;;;;;8.35;6.45;;;17.10;57.10;;;;;;5079013;28;20048;-81
2022/05/03 10:47:55;;;;;;;13.98;6.85;;;17.10;56.90;;;;;;5079217;28;20052;-79
2022/05/03 10:50:26;;;;;;;8.35;6.18;;;17.10;56.80;;;;;;5079228;28;20503;-79
2022/05/03 10:52:56;;;;;;;8.18;5.90;;;17.10;56.70;;;;;;5079086;28;20044;-79
2022/05/03 10:55:25;;;;;;;8.75;5.90;;;17.10;56.70;;;;;;5075780;28;20052;-79
2022/05/03 10:58:25;;;;;;;9.30;6.07;;;17.20;56.60;;;;;;5091017;28;20074;-79
2022/05/03 11:01:11;;;;;;;8.88;6.15;;;17.20;56.50;;;;;;5090546;28;20048;-78
2022/05/03 11:04:01;;;;;;;9.57;6.07;;;17.30;56.30;;;;;;5078860;28;20072;-80
2022/05/03 11:06:28;;;;;;;11.32;7.25;;;17.30;56.30;;;;;;5089186;28;20048;-78
2022/05/03 11:11:37;;;;;;;10.55;6.93;;;17.40;56.10;;;;;;5078461;28;20045;-78
2022/05/03 11:14:26;;;;;;;9.15;6.28;;;17.40;56.00;;;;;;5078787;28;20051;-79
2022/05/03 11:17:05;;;;;;;9.80;6.38;;;17.40;56.00;;;;;;5071018;28;20044;-78
2022/05/03 11:19:40;;;;;;;9.85;6.55;;;17.40;55.90;;;;;;5075675;28;20051;-79
2022/05/03 11:22:12;;;;;;;12.07;7.93;;;17.40;55.90;;;;;;5076487;28;20106;-81
2022/05/03 11:24:44;;;;;;;9.63;6.50;;;17.40;55.80;;;;;;5078673;28;20049;-80
2022/05/03 11:27:13;;;;;;;10.40;7.47;;;17.40;55.80;;;;;;5078828;28;20170;-80
2022/05/03 11:29:54;;;;;;;10.68;6.82;;;17.40;55.80;;;;;;5077770;28;20105;-80
2022/05/03 11:32:42;;;;;;;9.20;6.63;;;17.40;55.80;;;;;;5078913;28;20387;-79
2022/05/03 11:35:15;;;;;;;9.52;7.13;;;17.40;55.80;;;;;;5078638;28;20044;-80
2022/05/03 11:37:48;;;;;;;9.13;7.13;;;17.40;55.80;;;;;;5076656;28;20052;-80
2022/05/03 11:40:17;;;;;;;10.05;8.32;;;17.40;55.80;;;;;;5074967;28;20395;-80
2022/05/03 11:42:45;;;;;;;9.32;6.25;;;17.50;55.70;;;;;;5078249;28;20102;-80
2022/05/03 11:45:13;;;;;;;10.30;6.53;;;17.60;55.70;;;;;;5078314;28;20044;-80
2022/05/03 11:47:46;;;;;;;9.20;6.32;;;17.50;55.70;;;;;;5078308;28;20045;-80
2022/05/03 11:55:58;;;;;;;10.27;6.88;;;17.60;55.70;;;;;;5078147;28;20094;-80
2022/05/03 11:56:00;;;;;;;10.30;6.25;;;17.70;55.70;;;;;;5089294;28;20464;-80
2022/05/03 11:58:29;;;;;;;10.43;6.85;;;17.70;55.70;;;;;;5073820;28;20051;-80
2022/05/03 12:00:55;;;;;;;10.90;7.18;;;17.80;55.70;;;;;;5076436;28;20045;-80
2022/05/03 12:03:23;;;;;;;9.80;5.75;;;17.80;55.70;;;;;;5078317;28;20056;-80
2022/05/03 12:06:03;;;;;;;9.55;6.38;;;17.90;55.60;;;;;;5087420;28;20091;-79
2022/05/03 12:08:33;;;;;;;8.32;5.80;;;17.90;55.50;;;;;;5084377;28;20052;-80
2022/05/03 12:11:00;;;;;;;9.82;6.22;;;18.00;55.40;;;;;;5077817;28;20048;-80
2022/05/03 12:13:31;;;;;;;11.15;6.53;;;18.00;55.40;;;;;;5074457;28;20045;-80
2022/05/03 12:16:21;;;;;;;7.50;5.68;;;18.10;55.20;;;;;;5089565;28;20031;-80
2022/05/03 12:18:49;;;;;;;7.78;5.60;;;18.10;55.10;;;;;;5077588;28;20052;-80
2022/05/03 12:21:17;;;;;;;9.68;6.50;;;18.20;55.00;;;;;;5077569;28;20055;-80
2022/05/03 12:23:49;;;;;;;10.23;6.38;;;18.20;54.80;;;;;;5077570;28;20048;-80
2022/05/03 12:26:19;;;;;;;10.05;6.45;;;18.30;54.70;;;;;;5081567;28;20121;-80
2022/05/03 12:29:07;;;;;;;9.57;6.13;;;18.40;54.60;;;;;;5088555;28;20113;-80
2022/05/03 12:31:37;;;;;;;8.65;6.22;;;18.30;54.40;;;;;;5074809;28;20079;-80
2022/05/03 12:34:07;;;;;;;9.63;7.40;;;18.40;54.30;;;;;;5074890;28;20423;-90
2022/05/03 12:36:42;;;;;;;8.07;5.82;;;18.40;54.20;;;;;;5086727;28;20052;-90
2022/05/03 12:39:11;;;;;;;8.80;6.20;;;18.40;54.10;;;;;;5090130;28;20052;-89
2022/05/03 12:41:44;;;;;;;11.05;6.55;;;18.40;54.00;;;;;;5081069;28;20044;-90
2022/05/03 12:44:14;;;;;;;6.95;5.20;;;18.40;53.80;;;;;;5077047;28;20040;-91
2022/05/03 12:46:42;;;;;;;7.38;5.30;;;18.40;53.60;;;;;;5075263;28;20045;-90
2022/05/03 12:49:12;;;;;;;8.68;5.85;;;18.40;53.50;;;;;;5090706;28;20056;-90
2022/05/03 12:51:45;;;;;;;9.32;5.38;;;18.40;53.50;;;;;;5076928;28;20094;-91
2022/05/03 12:54:12;;;;;;;6.93;5.18;;;18.50;53.40;;;;;;5076965;28;20106;-90
2022/05/03 12:59:28;;;;;;;7.78;5.60;;;18.50;53.20;;;;;;5084078;28;20044;-91
2022/05/03 13:01:56;;;;;;;8.23;5.40;;;18.50;53.10;;;;;;5075639;28;20102;-90
2022/05/03 13:04:25;;;;;;;7.50;4.90;;;18.50;53.00;;;;;;5071695;28;20085;-91
2022/05/03 13:07:09;;;;;;;7.55;5.28;;;18.50;53.00;;;;;;5073069;28;20089;-90
2022/05/03 13:09:37;;;;;;;9.85;5.00;;;18.50;52.90;;;;;;5076833;28;20461;-89
2022/05/03 13:12:04;;;;;;;8.02;4.85;;;18.50;52.90;;;;;;5082483;28;20432;-91
2022/05/03 13:14:32;;;;;;;8.88;5.05;;;18.60;52.90;;;;;;5084626;28;20052;-90
2022/05/03 13:17:00;;;;;;;7.10;4.57;;;18.60;52.80;;;;;;5074473;28;20055;-89
2022/05/03 13:19:27;;;;;;;5.85;4.38;;;18.60;52.80;;;;;;5088343;28;20093;-89
2022/05/03 13:21:56;;;;;;;7.45;4.85;;;18.60;52.70;;;;;;5075589;28;20094;-90
2022/05/03 13:24:24;;;;;;;8.48;5.10;;;18.70;52.70;;;;;;5077290;28;20056;-91
2022/05/03 13:26:51;;;;;;;7.88;4.70;;;18.70;52.60;;;;;;5075392;28;20595;-91
2022/05/03 13:29:19;;;;;;;8.95;5.40;;;18.80;52.50;;;;;;5076963;28;20045;-90
2022/05/03 13:31:47;;;;;;;6.43;4.75;;;18.80;52.50;;;;;;5091706;28;20048;-91
2022/05/03 13:34:33;;;;;;;8.40;4.45;;;18.80;52.50;;;;;;5073415;28;20056;-92
2022/05/03 13:42:31;;;;;;;8.05;6.82;;;18.90;52.30;;;;;;5078501;28;20461;-93
2022/05/03 13:44:58;;;;;;;11.35;5.85;;;19.00;52.30;;;;;;5079032;28;20052;-93
2022/05/03 13:47:25;;;;;;;9.07;5.72;;;19.00;52.40;;;;;;5074727;28;20048;-92
2022/05/03 13:49:53;;;;;;;8.20;6.05;;;19.00;52.30;;;;;;5076865;28;20460;-91
2022/05/03 13:52:21;;;;;;;8.82;6.00;;;19.00;52.40;;;;;;5071526;28;20111;-92
2022/05/03 13:54:48;;;;;;;7.82;5.68;;;19.00;52.30;;;;;;5080173;28;20044;-91